sensor_id;sensor_type;location;lat;lon;timestamp;P1;durP1;ratioP1;P2;durP2;ratioP2
3683;SDS011;1858;48.716;9.648;2023-07-31T05:36:37;2.40;;;1.30;;
3683;SDS011;1858;48.716;9.648;2023-07-31T05:53:55;3.10;;;1.43;;
3683;SDS011;1858;48.716;9.648;2023-07-31T05:56:23;2.15;;;1.40;;
3683;SDS011;1858;48.716;9.648;2023-07-31T06:01:21;4.60;;;1.60;;
3683;SDS011;1858;48.716;9.648;2023-07-31T06:03:49;2.80;;;1.30;;
3683;SDS011;1858;48.716;9.648;2023-07-31T06:11:13;4.87;;;1.90;;
3683;SDS011;1858;48.716;9.648;2023-07-31T06:13:41;3.60;;;1.40;;
3683;SDS011;1858;48.716;9.648;2023-07-31T06:16:11;4.20;;;1.67;;
3683;SDS011;1858;48.716;9.648;2023-07-31T06:18:39;4.50;;;1.40;;
3683;SDS011;1858;48.716;9.648;2023-07-31T06:21:09;2.70;;;1.33;;
3683;SDS011;1858;48.716;9.648;2023-07-31T06:23:38;2.20;;;1.23;;
3683;SDS011;1858;48.716;9.648;2023-07-31T06:26:06;4.63;;;1.43;;
3683;SDS011;1858;48.716;9.648;2023-07-31T06:28:35;3.07;;;1.27;;
3683;SDS011;1858;48.716;9.648;2023-07-31T06:31:03;5.33;;;1.53;;
3683;SDS011;1858;48.716;9.648;2023-07-31T06:33:31;5.00;;;1.40;;
3683;SDS011;1858;48.716;9.648;2023-07-31T06:36:00;5.10;;;1.97;;
3683;SDS011;1858;48.716;9.648;2023-07-31T06:40:56;2.20;;;1.60;;
3683;SDS011;1858;48.716;9.648;2023-07-31T06:43:27;2.83;;;1.60;;
3683;SDS011;1858;48.716;9.648;2023-07-31T06:45:55;2.20;;;1.20;;
3683;SDS011;1858;48.716;9.648;2023-07-31T06:48:30;4.87;;;1.40;;
3683;SDS011;1858;48.716;9.648;2023-07-31T06:50:58;3.50;;;1.47;;
3683;SDS011;1858;48.716;9.648;2023-07-31T06:53:28;2.67;;;1.77;;
3683;SDS011;1858;48.716;9.648;2023-07-31T06:55:56;3.90;;;1.80;;
3683;SDS011;1858;48.716;9.648;2023-07-31T06:58:25;7.10;;;1.50;;
3683;SDS011;1858;48.716;9.648;2023-07-31T07:00:53;3.93;;;1.33;;
3683;SDS011;1858;48.716;9.648;2023-07-31T07:05:49;2.10;;;1.20;;
3683;SDS011;1858;48.716;9.648;2023-07-31T07:13:13;3.47;;;1.47;;
3683;SDS011;1858;48.716;9.648;2023-07-31T07:18:09;12.80;;;1.40;;
3683;SDS011;1858;48.716;9.648;2023-07-31T07:25:33;3.10;;;1.50;;
3683;SDS011;1858;48.716;9.648;2023-07-31T10:09:25;2.20;;;0.90;;
3683;SDS011;1858;48.716;9.648;2023-07-31T10:26:52;3.00;;;0.90;;
3683;SDS011;1858;48.716;9.648;2023-07-31T10:29:43;4.67;;;0.90;;
3683;SDS011;1858;48.716;9.648;2023-07-31T10:32:33;4.93;;;1.63;;
3683;SDS011;1858;48.716;9.648;2023-07-31T10:44:17;7.80;;;1.20;;
3683;SDS011;1858;48.716;9.648;2023-07-31T11:34:52;4.60;;;1.00;;
3683;SDS011;1858;48.716;9.648;2023-07-31T11:37:42;4.70;;;1.37;;
3683;SDS011;1858;48.716;9.648;2023-07-31T11:48:47;3.67;;;1.40;;
3683;SDS011;1858;48.716;9.648;2023-07-31T11:51:35;3.00;;;1.00;;
3683;SDS011;1858;48.716;9.648;2023-07-31T11:54:21;2.97;;;1.53;;
3683;SDS011;1858;48.716;9.648;2023-07-31T11:57:07;2.47;;;1.00;;
3683;SDS011;1858;48.716;9.648;2023-07-31T12:05:47;1.70;;;0.60;;
3683;SDS011;1858;48.716;9.648;2023-07-31T12:08:33;3.10;;;1.30;;
3683;SDS011;1858;48.716;9.648;2023-07-31T12:11:21;4.03;;;1.23;;
3683;SDS011;1858;48.716;9.648;2023-07-31T12:14:08;5.50;;;1.10;;
3683;SDS011;1858;48.716;9.648;2023-07-31T12:17:15;3.47;;;1.20;;
3683;SDS011;1858;48.716;9.648;2023-07-31T12:20:04;3.60;;;1.00;;
3683;SDS011;1858;48.716;9.648;2023-07-31T12:22:51;2.97;;;1.00;;
3683;SDS011;1858;48.716;9.648;2023-07-31T12:25:38;2.23;;;0.87;;
3683;SDS011;1858;48.716;9.648;2023-07-31T12:28:24;2.60;;;1.10;;
3683;SDS011;1858;48.716;9.648;2023-07-31T12:31:22;2.20;;;1.00;;
3683;SDS011;1858;48.716;9.648;2023-07-31T12:34:17;2.50;;;0.87;;
3683;SDS011;1858;48.716;9.648;2023-07-31T12:43:02;5.00;;;1.63;;
3683;SDS011;1858;48.716;9.648;2023-07-31T13:08:13;3.47;;;1.20;;
3683;SDS011;1858;48.716;9.648;2023-07-31T13:13:47;3.37;;;1.30;;
3683;SDS011;1858;48.716;9.648;2023-07-31T13:16:33;5.83;;;1.63;;
3683;SDS011;1858;48.716;9.648;2023-07-31T13:19:20;3.80;;;1.80;;
3683;SDS011;1858;48.716;9.648;2023-07-31T13:27:38;2.10;;;1.13;;
3683;SDS011;1858;48.716;9.648;2023-07-31T13:30:24;6.90;;;1.60;;
3683;SDS011;1858;48.716;9.648;2023-07-31T13:44:13;4.55;;;1.65;;
3683;SDS011;1858;48.716;9.648;2023-07-31T13:47:00;3.20;;;1.53;;
3683;SDS011;1858;48.716;9.648;2023-07-31T13:49:46;3.20;;;1.37;;
3683;SDS011;1858;48.716;9.648;2023-07-31T13:52:32;2.63;;;1.00;;
3683;SDS011;1858;48.716;9.648;2023-07-31T13:55:18;2.43;;;1.33;;
3683;SDS011;1858;48.716;9.648;2023-07-31T13:58:05;3.23;;;1.57;;
3683;SDS011;1858;48.716;9.648;2023-07-31T14:00:51;2.80;;;1.47;;
3683;SDS011;1858;48.716;9.648;2023-07-31T14:09:09;3.43;;;1.70;;
3683;SDS011;1858;48.716;9.648;2023-07-31T14:14:41;4.70;;;2.07;;
3683;SDS011;1858;48.716;9.648;2023-07-31T14:17:28;3.03;;;1.60;;
3683;SDS011;1858;48.716;9.648;2023-07-31T14:20:14;3.00;;;1.20;;
3683;SDS011;1858;48.716;9.648;2023-07-31T14:23:02;2.30;;;1.10;;
3683;SDS011;1858;48.716;9.648;2023-07-31T14:39:37;2.90;;;1.60;;
3683;SDS011;1858;48.716;9.648;2023-07-31T14:45:29;5.13;;;1.70;;
3683;SDS011;1858;48.716;9.648;2023-07-31T14:48:15;3.93;;;1.70;;
3683;SDS011;1858;48.716;9.648;2023-07-31T14:51:01;2.20;;;0.80;;
3683;SDS011;1858;48.716;9.648;2023-07-31T14:56:33;3.65;;;1.60;;
3683;SDS011;1858;48.716;9.648;2023-07-31T14:59:20;3.90;;;1.20;;
3683;SDS011;1858;48.716;9.648;2023-07-31T15:02:07;4.23;;;1.17;;
3683;SDS011;1858;48.716;9.648;2023-07-31T15:10:46;4.10;;;1.80;;
3683;SDS011;1858;48.716;9.648;2023-07-31T15:19:04;2.70;;;1.30;;
3683;SDS011;1858;48.716;9.648;2023-07-31T15:24:36;3.55;;;1.75;;
3683;SDS011;1858;48.716;9.648;2023-07-31T15:27:23;5.20;;;1.13;;
3683;SDS011;1858;48.716;9.648;2023-07-31T15:35:41;3.50;;;1.20;;
3683;SDS011;1858;48.716;9.648;2023-07-31T15:41:13;3.50;;;1.30;;
3683;SDS011;1858;48.716;9.648;2023-07-31T15:44:00;4.67;;;1.57;;
3683;SDS011;1858;48.716;9.648;2023-07-31T15:46:46;2.57;;;1.30;;
3683;SDS011;1858;48.716;9.648;2023-07-31T15:49:33;2.30;;;0.90;;
3683;SDS011;1858;48.716;9.648;2023-07-31T15:52:19;4.17;;;1.60;;
3683;SDS011;1858;48.716;9.648;2023-07-31T15:55:06;3.70;;;1.30;;
3683;SDS011;1858;48.716;9.648;2023-07-31T15:57:53;3.80;;;1.13;;
3683;SDS011;1858;48.716;9.648;2023-07-31T16:00:39;3.20;;;1.33;;
3683;SDS011;1858;48.716;9.648;2023-07-31T16:03:25;2.73;;;1.60;;
3683;SDS011;1858;48.716;9.648;2023-07-31T16:06:12;2.83;;;1.10;;
3683;SDS011;1858;48.716;9.648;2023-07-31T16:12:04;2.70;;;1.53;;
3683;SDS011;1858;48.716;9.648;2023-07-31T16:14:51;2.00;;;0.70;;
3683;SDS011;1858;48.716;9.648;2023-07-31T16:26:08;4.30;;;1.80;;
3683;SDS011;1858;48.716;9.648;2023-07-31T16:28:54;2.77;;;1.43;;
3683;SDS011;1858;48.716;9.648;2023-07-31T16:31:41;2.90;;;1.40;;
3683;SDS011;1858;48.716;9.648;2023-07-31T16:34:27;1.87;;;0.90;;
3683;SDS011;1858;48.716;9.648;2023-07-31T16:40:21;3.27;;;1.20;;
3683;SDS011;1858;48.716;9.648;2023-07-31T16:43:07;3.40;;;1.20;;
3683;SDS011;1858;48.716;9.648;2023-07-31T16:45:53;2.70;;;1.00;;
3683;SDS011;1858;48.716;9.648;2023-07-31T16:48:41;4.93;;;1.60;;
3683;SDS011;1858;48.716;9.648;2023-07-31T16:51:27;8.10;;;1.23;;
3683;SDS011;1858;48.716;9.648;2023-07-31T16:54:14;3.93;;;1.30;;
3683;SDS011;1858;48.716;9.648;2023-07-31T16:57:00;3.40;;;1.37;;
3683;SDS011;1858;48.716;9.648;2023-07-31T16:59:46;3.53;;;1.40;;
3683;SDS011;1858;48.716;9.648;2023-07-31T17:02:33;2.60;;;1.17;;
3683;SDS011;1858;48.716;9.648;2023-07-31T17:05:19;4.87;;;1.70;;
3683;SDS011;1858;48.716;9.648;2023-07-31T17:08:05;2.53;;;1.30;;
3683;SDS011;1858;48.716;9.648;2023-07-31T17:13:57;1.97;;;0.97;;
3683;SDS011;1858;48.716;9.648;2023-07-31T17:16:45;3.00;;;1.47;;
3683;SDS011;1858;48.716;9.648;2023-07-31T17:22:17;4.30;;;1.73;;
3683;SDS011;1858;48.716;9.648;2023-07-31T18:09:55;3.17;;;1.77;;
3683;SDS011;1858;48.716;9.648;2023-07-31T18:12:41;3.10;;;1.80;;
3683;SDS011;1858;48.716;9.648;2023-07-31T18:38:31;4.53;;;1.47;;
3683;SDS011;1858;48.716;9.648;2023-07-31T18:41:18;3.00;;;1.40;;
3683;SDS011;1858;48.716;9.648;2023-07-31T18:49:36;3.17;;;1.43;;
3683;SDS011;1858;48.716;9.648;2023-07-31T18:52:22;3.80;;;1.83;;
3683;SDS011;1858;48.716;9.648;2023-07-31T18:55:08;4.27;;;1.33;;
3683;SDS011;1858;48.716;9.648;2023-07-31T19:01:00;2.97;;;1.47;;
3683;SDS011;1858;48.716;9.648;2023-07-31T19:03:47;6.10;;;2.10;;
3683;SDS011;1858;48.716;9.648;2023-07-31T19:06:33;5.07;;;1.83;;
3683;SDS011;1858;48.716;9.648;2023-07-31T19:12:26;5.80;;;1.90;;
3683;SDS011;1858;48.716;9.648;2023-07-31T19:15:12;3.67;;;1.53;;
3683;SDS011;1858;48.716;9.648;2023-07-31T19:23:31;2.87;;;1.80;;
3683;SDS011;1858;48.716;9.648;2023-07-31T19:26:18;3.77;;;1.50;;
3683;SDS011;1858;48.716;9.648;2023-07-31T19:31:50;3.50;;;2.00;;
3683;SDS011;1858;48.716;9.648;2023-07-31T19:34:36;4.73;;;2.03;;
3683;SDS011;1858;48.716;9.648;2023-07-31T19:37:22;5.27;;;1.90;;
3683;SDS011;1858;48.716;9.648;2023-07-31T19:45:42;5.40;;;2.10;;
3683;SDS011;1858;48.716;9.648;2023-07-31T19:51:14;4.03;;;1.80;;
3683;SDS011;1858;48.716;9.648;2023-07-31T19:54:00;4.13;;;2.07;;
3683;SDS011;1858;48.716;9.648;2023-07-31T19:56:46;3.20;;;1.70;;
3683;SDS011;1858;48.716;9.648;2023-07-31T19:59:34;2.97;;;2.00;;
3683;SDS011;1858;48.716;9.648;2023-07-31T20:05:25;5.23;;;1.83;;
3683;SDS011;1858;48.716;9.648;2023-07-31T20:08:12;6.30;;;2.13;;
3683;SDS011;1858;48.716;9.648;2023-07-31T20:10:59;4.37;;;1.70;;
3683;SDS011;1858;48.716;9.648;2023-07-31T20:13:45;10.90;;;2.47;;
3683;SDS011;1858;48.716;9.648;2023-07-31T20:16:31;4.50;;;2.53;;
3683;SDS011;1858;48.716;9.648;2023-07-31T20:24:51;3.83;;;1.90;;
3683;SDS011;1858;48.716;9.648;2023-07-31T20:27:38;5.00;;;1.97;;
3683;SDS011;1858;48.716;9.648;2023-07-31T20:30:24;6.30;;;2.27;;
3683;SDS011;1858;48.716;9.648;2023-07-31T20:33:11;2.80;;;1.83;;
3683;SDS011;1858;48.716;9.648;2023-07-31T20:35:57;6.97;;;2.30;;
3683;SDS011;1858;48.716;9.648;2023-07-31T20:38:44;6.10;;;2.73;;
3683;SDS011;1858;48.716;9.648;2023-07-31T20:41:31;3.50;;;1.70;;
3683;SDS011;1858;48.716;9.648;2023-07-31T20:44:19;5.00;;;2.20;;
3683;SDS011;1858;48.716;9.648;2023-07-31T20:49:51;8.87;;;2.30;;
3683;SDS011;1858;48.716;9.648;2023-07-31T20:52:37;5.10;;;2.90;;
3683;SDS011;1858;48.716;9.648;2023-07-31T20:55:24;3.87;;;2.40;;
3683;SDS011;1858;48.716;9.648;2023-07-31T21:01:10;5.30;;;2.27;;
3683;SDS011;1858;48.716;9.648;2023-07-31T21:03:56;4.10;;;2.17;;
3683;SDS011;1858;48.716;9.648;2023-07-31T21:20:31;4.23;;;2.83;;
3683;SDS011;1858;48.716;9.648;2023-07-31T21:23:17;2.90;;;2.40;;
3683;SDS011;1858;48.716;9.648;2023-07-31T21:34:21;3.20;;;1.77;;
3683;SDS011;1858;48.716;9.648;2023-07-31T21:37:07;8.67;;;2.10;;
3683;SDS011;1858;48.716;9.648;2023-07-31T21:39:55;7.17;;;3.20;;
3683;SDS011;1858;48.716;9.648;2023-07-31T21:42:41;4.47;;;2.73;;
3683;SDS011;1858;48.716;9.648;2023-07-31T21:45:28;4.57;;;2.27;;
3683;SDS011;1858;48.716;9.648;2023-07-31T21:48:14;4.47;;;2.40;;
3683;SDS011;1858;48.716;9.648;2023-07-31T21:51:01;5.70;;;2.70;;
3683;SDS011;1858;48.716;9.648;2023-07-31T21:53:47;10.43;;;3.10;;
3683;SDS011;1858;48.716;9.648;2023-07-31T21:56:33;6.67;;;3.00;;
3683;SDS011;1858;48.716;9.648;2023-07-31T21:59:20;8.27;;;2.90;;
3683;SDS011;1858;48.716;9.648;2023-07-31T22:02:06;4.23;;;2.20;;
3683;SDS011;1858;48.716;9.648;2023-07-31T22:04:52;4.70;;;2.80;;
3683;SDS011;1858;48.716;9.648;2023-07-31T22:07:39;3.60;;;2.80;;
3683;SDS011;1858;48.716;9.648;2023-07-31T22:10:25;5.13;;;2.70;;
3683;SDS011;1858;48.716;9.648;2023-07-31T22:13:11;11.00;;;3.70;;
3683;SDS011;1858;48.716;9.648;2023-07-31T22:15:58;3.87;;;2.20;;
3683;SDS011;1858;48.716;9.648;2023-07-31T22:18:44;8.27;;;2.77;;
3683;SDS011;1858;48.716;9.648;2023-07-31T22:21:31;4.50;;;2.90;;
3683;SDS011;1858;48.716;9.648;2023-07-31T22:24:18;4.00;;;2.63;;
3683;SDS011;1858;48.716;9.648;2023-07-31T22:27:04;3.40;;;1.90;;
3683;SDS011;1858;48.716;9.648;2023-07-31T22:29:51;5.27;;;2.03;;
3683;SDS011;1858;48.716;9.648;2023-07-31T22:32:37;7.63;;;2.67;;
3683;SDS011;1858;48.716;9.648;2023-07-31T22:38:30;6.70;;;3.60;;
3683;SDS011;1858;48.716;9.648;2023-07-31T22:41:16;4.03;;;2.63;;
3683;SDS011;1858;48.716;9.648;2023-07-31T22:47:08;6.17;;;2.87;;
3683;SDS011;1858;48.716;9.648;2023-07-31T22:49:54;4.93;;;2.20;;
3683;SDS011;1858;48.716;9.648;2023-07-31T22:52:41;5.87;;;2.80;;
3683;SDS011;1858;48.716;9.648;2023-07-31T22:55:28;6.23;;;2.70;;
3683;SDS011;1858;48.716;9.648;2023-07-31T22:58:15;3.43;;;2.40;;
3683;SDS011;1858;48.716;9.648;2023-07-31T23:01:03;3.70;;;2.13;;
3683;SDS011;1858;48.716;9.648;2023-07-31T23:03:50;3.40;;;1.80;;
3683;SDS011;1858;48.716;9.648;2023-07-31T23:06:36;10.63;;;2.63;;
3683;SDS011;1858;48.716;9.648;2023-07-31T23:09:22;5.37;;;2.20;;
3683;SDS011;1858;48.716;9.648;2023-07-31T23:15:15;6.20;;;2.33;;
3683;SDS011;1858;48.716;9.648;2023-07-31T23:18:01;3.73;;;2.40;;
3683;SDS011;1858;48.716;9.648;2023-07-31T23:20:48;3.93;;;2.13;;
3683;SDS011;1858;48.716;9.648;2023-07-31T23:23:40;2.77;;;1.40;;
3683;SDS011;1858;48.716;9.648;2023-07-31T23:26:27;4.83;;;2.63;;
3683;SDS011;1858;48.716;9.648;2023-07-31T23:29:13;4.43;;;2.40;;
3683;SDS011;1858;48.716;9.648;2023-07-31T23:32:00;4.00;;;1.93;;
3683;SDS011;1858;48.716;9.648;2023-07-31T23:34:46;10.37;;;2.93;;
3683;SDS011;1858;48.716;9.648;2023-07-31T23:37:32;2.63;;;1.47;;
3683;SDS011;1858;48.716;9.648;2023-07-31T23:43:24;3.43;;;2.10;;
3683;SDS011;1858;48.716;9.648;2023-07-31T23:46:10;3.50;;;1.87;;
3683;SDS011;1858;48.716;9.648;2023-07-31T23:48:57;2.77;;;1.93;;
3683;SDS011;1858;48.716;9.648;2023-07-31T23:51:44;3.17;;;2.10;;
3683;SDS011;1858;48.716;9.648;2023-07-31T23:54:30;3.30;;;1.73;;
3683;SDS011;1858;48.716;9.648;2023-07-31T23:57:17;4.63;;;2.07;;
